sensor_id;sensor_type;location;lat;lon;timestamp;temperature;humidity
3944;DHT22;1986;52.546;13.428;2022-08-19T00:01:48;21.30;99.90
3944;DHT22;1986;52.546;13.428;2022-08-19T00:04:17;21.30;99.90
3944;DHT22;1986;52.546;13.428;2022-08-19T00:06:46;21.30;99.90
3944;DHT22;1986;52.546;13.428;2022-08-19T00:09:15;21.30;99.90
3944;DHT22;1986;52.546;13.428;2022-08-19T00:11:43;21.30;99.90
3944;DHT22;1986;52.546;13.428;2022-08-19T00:14:12;21.40;99.90
3944;DHT22;1986;52.546;13.428;2022-08-19T00:16:41;21.30;99.90
3944;DHT22;1986;52.546;13.428;2022-08-19T00:19:10;21.30;99.90
3944;DHT22;1986;52.546;13.428;2022-08-19T00:21:37;21.30;99.90
3944;DHT22;1986;52.546;13.428;2022-08-19T00:24:06;21.30;99.90
3944;DHT22;1986;52.546;13.428;2022-08-19T00:26:36;21.30;99.90
3944;DHT22;1986;52.546;13.428;2022-08-19T00:29:06;21.30;99.90
3944;DHT22;1986;52.546;13.428;2022-08-19T00:31:35;21.30;99.90
3944;DHT22;1986;52.546;13.428;2022-08-19T00:34:06;21.30;99.90
3944;DHT22;1986;52.546;13.428;2022-08-19T00:36:47;21.30;99.90
3944;DHT22;1986;52.546;13.428;2022-08-19T00:39:19;21.30;99.90
3944;DHT22;1986;52.546;13.428;2022-08-19T00:41:47;21.20;99.90
3944;DHT22;1986;52.546;13.428;2022-08-19T00:44:17;21.20;99.90
3944;DHT22;1986;52.546;13.428;2022-08-19T00:46:48;21.20;99.90
3944;DHT22;1986;52.546;13.428;2022-08-19T00:49:19;21.20;99.90
3944;DHT22;1986;52.546;13.428;2022-08-19T00:51:50;21.20;99.90
3944;DHT22;1986;52.546;13.428;2022-08-19T00:54:25;21.20;99.90
3944;DHT22;1986;52.546;13.428;2022-08-19T00:56:52;21.10;99.90
3944;DHT22;1986;52.546;13.428;2022-08-19T00:59:20;21.10;99.90
3944;DHT22;1986;52.546;13.428;2022-08-19T01:01:51;21.10;99.90
3944;DHT22;1986;52.546;13.428;2022-08-19T01:04:18;21.00;99.90
3944;DHT22;1986;52.546;13.428;2022-08-19T01:06:45;20.90;99.90
3944;DHT22;1986;52.546;13.428;2022-08-19T01:09:12;20.90;99.90
3944;DHT22;1986;52.546;13.428;2022-08-19T01:11:41;20.90;99.90
3944;DHT22;1986;52.546;13.428;2022-08-19T01:14:10;21.00;99.90
3944;DHT22;1986;52.546;13.428;2022-08-19T01:16:39;21.00;99.90
3944;DHT22;1986;52.546;13.428;2022-08-19T01:19:15;21.10;99.90
3944;DHT22;1986;52.546;13.428;2022-08-19T01:21:48;21.20;99.90
3944;DHT22;1986;52.546;13.428;2022-08-19T01:24:22;21.10;99.90
3944;DHT22;1986;52.546;13.428;2022-08-19T01:26:50;21.00;99.90
3944;DHT22;1986;52.546;13.428;2022-08-19T01:29:17;20.90;99.90
3944;DHT22;1986;52.546;13.428;2022-08-19T01:31:44;20.90;99.90
3944;DHT22;1986;52.546;13.428;2022-08-19T01:34:11;20.90;99.90
3944;DHT22;1986;52.546;13.428;2022-08-19T01:36:42;21.00;99.90
3944;DHT22;1986;52.546;13.428;2022-08-19T01:39:14;21.00;99.90
3944;DHT22;1986;52.546;13.428;2022-08-19T01:41:42;21.00;99.90
3944;DHT22;1986;52.546;13.428;2022-08-19T01:44:10;21.10;99.90
3944;DHT22;1986;52.546;13.428;2022-08-19T01:46:37;21.30;99.90
3944;DHT22;1986;52.546;13.428;2022-08-19T01:49:07;21.20;99.90
3944;DHT22;1986;52.546;13.428;2022-08-19T01:51:37;21.20;99.90
3944;DHT22;1986;52.546;13.428;2022-08-19T01:54:04;21.20;99.90
3944;DHT22;1986;52.546;13.428;2022-08-19T01:56:31;21.20;99.90
3944;DHT22;1986;52.546;13.428;2022-08-19T01:59:06;21.30;99.90
3944;DHT22;1986;52.546;13.428;2022-08-19T02:01:37;21.30;99.90
3944;DHT22;1986;52.546;13.428;2022-08-19T02:04:07;21.40;99.90
3944;DHT22;1986;52.546;13.428;2022-08-19T02:06:37;21.60;99.90
3944;DHT22;1986;52.546;13.428;2022-08-19T02:09:06;21.60;99.90
3944;DHT22;1986;52.546;13.428;2022-08-19T02:11:35;21.90;99.90
3944;DHT22;1986;52.546;13.428;2022-08-19T02:14:06;22.00;99.90
3944;DHT22;1986;52.546;13.428;2022-08-19T02:16:37;22.00;99.90
3944;DHT22;1986;52.546;13.428;2022-08-19T02:19:06;22.10;99.90
3944;DHT22;1986;52.546;13.428;2022-08-19T02:21:34;22.10;99.90
3944;DHT22;1986;52.546;13.428;2022-08-19T02:24:01;22.10;99.90
3944;DHT22;1986;52.546;13.428;2022-08-19T02:26:28;22.10;99.90
3944;DHT22;1986;52.546;13.428;2022-08-19T02:28:55;22.10;99.90
3944;DHT22;1986;52.546;13.428;2022-08-19T02:31:25;22.20;99.90
3944;DHT22;1986;52.546;13.428;2022-08-19T02:33:53;22.10;99.90
3944;DHT22;1986;52.546;13.428;2022-08-19T02:36:21;22.10;99.90
3944;DHT22;1986;52.546;13.428;2022-08-19T02:38:49;22.10;99.90
3944;DHT22;1986;52.546;13.428;2022-08-19T02:41:17;22.10;99.90
3944;DHT22;1986;52.546;13.428;2022-08-19T02:43:44;22.10;99.90
3944;DHT22;1986;52.546;13.428;2022-08-19T02:46:13;22.10;99.90
3944;DHT22;1986;52.546;13.428;2022-08-19T02:48:42;22.10;99.90
3944;DHT22;1986;52.546;13.428;2022-08-19T02:51:09;22.10;99.90
3944;DHT22;1986;52.546;13.428;2022-08-19T02:53:41;22.10;99.90
3944;DHT22;1986;52.546;13.428;2022-08-19T02:56:08;22.10;99.90
3944;DHT22;1986;52.546;13.428;2022-08-19T02:58:35;22.10;99.90
3944;DHT22;1986;52.546;13.428;2022-08-19T03:01:02;22.20;99.90
3944;DHT22;1986;52.546;13.428;2022-08-19T03:03:29;22.20;99.90
3944;DHT22;1986;52.546;13.428;2022-08-19T03:06:08;22.20;99.90
3944;DHT22;1986;52.546;13.428;2022-08-19T03:08:35;22.20;99.90
3944;DHT22;1986;52.546;13.428;2022-08-19T03:11:02;22.20;99.90
3944;DHT22;1986;52.546;13.428;2022-08-19T03:13:29;22.10;99.90
3944;DHT22;1986;52.546;13.428;2022-08-19T03:15:56;22.10;99.90
3944;DHT22;1986;52.546;13.428;2022-08-19T03:18:23;22.10;99.90
3944;DHT22;1986;52.546;13.428;2022-08-19T03:20:52;22.00;99.90
3944;DHT22;1986;52.546;13.428;2022-08-19T03:23:22;22.00;99.90
3944;DHT22;1986;52.546;13.428;2022-08-19T03:25:50;22.00;99.90
3944;DHT22;1986;52.546;13.428;2022-08-19T03:28:17;22.00;99.90
3944;DHT22;1986;52.546;13.428;2022-08-19T03:30:56;21.90;99.90
3944;DHT22;1986;52.546;13.428;2022-08-19T03:33:24;21.90;99.90
3944;DHT22;1986;52.546;13.428;2022-08-19T03:36:06;21.90;99.90
3944;DHT22;1986;52.546;13.428;2022-08-19T03:38:36;21.90;99.90
3944;DHT22;1986;52.546;13.428;2022-08-19T03:41:05;21.90;99.90
3944;DHT22;1986;52.546;13.428;2022-08-19T03:43:34;21.80;99.90
3944;DHT22;1986;52.546;13.428;2022-08-19T03:46:03;21.90;99.90
3944;DHT22;1986;52.546;13.428;2022-08-19T03:48:32;21.90;99.90
3944;DHT22;1986;52.546;13.428;2022-08-19T03:50:59;21.90;99.90
3944;DHT22;1986;52.546;13.428;2022-08-19T03:53:27;21.90;99.90
3944;DHT22;1986;52.546;13.428;2022-08-19T03:55:57;21.90;99.90
3944;DHT22;1986;52.546;13.428;2022-08-19T03:58:26;21.80;99.90
3944;DHT22;1986;52.546;13.428;2022-08-19T04:00:54;21.90;99.90
3944;DHT22;1986;52.546;13.428;2022-08-19T04:03:21;21.80;99.90
3944;DHT22;1986;52.546;13.428;2022-08-19T04:05:48;21.90;99.90
3944;DHT22;1986;52.546;13.428;2022-08-19T04:08:16;21.90;99.90
3944;DHT22;1986;52.546;13.428;2022-08-19T04:10:44;21.90;99.90
3944;DHT22;1986;52.546;13.428;2022-08-19T04:13:12;21.90;99.90
3944;DHT22;1986;52.546;13.428;2022-08-19T04:15:40;21.90;99.90
3944;DHT22;1986;52.546;13.428;2022-08-19T04:18:09;21.90;99.90
3944;DHT22;1986;52.546;13.428;2022-08-19T04:20:41;21.90;99.90
3944;DHT22;1986;52.546;13.428;2022-08-19T04:23:08;21.90;99.90
3944;DHT22;1986;52.546;13.428;2022-08-19T04:25:37;21.90;99.90
3944;DHT22;1986;52.546;13.428;2022-08-19T04:28:04;21.80;99.90
3944;DHT22;1986;52.546;13.428;2022-08-19T04:30:37;21.80;99.90
3944;DHT22;1986;52.546;13.428;2022-08-19T04:33:04;21.90;99.90
3944;DHT22;1986;52.546;13.428;2022-08-19T04:35:35;21.90;99.90
3944;DHT22;1986;52.546;13.428;2022-08-19T04:38:03;21.80;99.90
3944;DHT22;1986;52.546;13.428;2022-08-19T04:40:32;21.80;99.90
3944;DHT22;1986;52.546;13.428;2022-08-19T04:43:17;21.80;99.90
3944;DHT22;1986;52.546;13.428;2022-08-19T04:45:46;21.60;99.90
3944;DHT22;1986;52.546;13.428;2022-08-19T04:48:13;21.60;99.90
3944;DHT22;1986;52.546;13.428;2022-08-19T04:50:42;21.70;99.90
3944;DHT22;1986;52.546;13.428;2022-08-19T04:53:09;21.70;99.90
3944;DHT22;1986;52.546;13.428;2022-08-19T04:55:40;21.70;99.90
3944;DHT22;1986;52.546;13.428;2022-08-19T04:58:07;21.70;99.90
3944;DHT22;1986;52.546;13.428;2022-08-19T05:00:38;21.70;99.90
3944;DHT22;1986;52.546;13.428;2022-08-19T05:03:10;21.70;99.90
3944;DHT22;1986;52.546;13.428;2022-08-19T05:05:39;21.70;99.90
3944;DHT22;1986;52.546;13.428;2022-08-19T05:08:07;21.70;99.90
3944;DHT22;1986;52.546;13.428;2022-08-19T05:10:35;21.80;99.90
3944;DHT22;1986;52.546;13.428;2022-08-19T05:13:05;21.80;99.90
3944;DHT22;1986;52.546;13.428;2022-08-19T05:15:35;21.70;99.90
3944;DHT22;1986;52.546;13.428;2022-08-19T05:18:04;21.80;99.90
3944;DHT22;1986;52.546;13.428;2022-08-19T05:20:52;21.90;99.90
3944;DHT22;1986;52.546;13.428;2022-08-19T05:23:36;21.80;99.90
3944;DHT22;1986;52.546;13.428;2022-08-19T05:26:04;21.80;99.90
3944;DHT22;1986;52.546;13.428;2022-08-19T05:28:34;21.80;99.90
3944;DHT22;1986;52.546;13.428;2022-08-19T05:31:02;22.00;99.90
3944;DHT22;1986;52.546;13.428;2022-08-19T05:33:30;22.10;99.90
3944;DHT22;1986;52.546;13.428;2022-08-19T05:36:00;22.10;99.90
3944;DHT22;1986;52.546;13.428;2022-08-19T05:38:35;22.20;99.90
3944;DHT22;1986;52.546;13.428;2022-08-19T05:41:07;22.40;99.90
3944;DHT22;1986;52.546;13.428;2022-08-19T05:43:35;22.50;99.90
3944;DHT22;1986;52.546;13.428;2022-08-19T05:46:07;22.70;99.90
3944;DHT22;1986;52.546;13.428;2022-08-19T05:48:35;22.80;99.90
3944;DHT22;1986;52.546;13.428;2022-08-19T05:51:05;22.80;99.90
3944;DHT22;1986;52.546;13.428;2022-08-19T05:53:34;22.80;99.90
3944;DHT22;1986;52.546;13.428;2022-08-19T05:56:05;22.70;99.90
3944;DHT22;1986;52.546;13.428;2022-08-19T05:58:35;22.70;99.90
3944;DHT22;1986;52.546;13.428;2022-08-19T06:01:02;22.40;99.90
3944;DHT22;1986;52.546;13.428;2022-08-19T06:03:32;22.40;99.90
3944;DHT22;1986;52.546;13.428;2022-08-19T06:06:03;22.60;99.90
3944;DHT22;1986;52.546;13.428;2022-08-19T06:08:32;22.80;99.90
3944;DHT22;1986;52.546;13.428;2022-08-19T06:11:12;22.60;99.90
3944;DHT22;1986;52.546;13.428;2022-08-19T06:13:40;22.50;99.90
3944;DHT22;1986;52.546;13.428;2022-08-19T06:16:06;22.50;99.90
3944;DHT22;1986;52.546;13.428;2022-08-19T06:18:33;22.50;99.90
3944;DHT22;1986;52.546;13.428;2022-08-19T06:21:00;22.60;99.90
3944;DHT22;1986;52.546;13.428;2022-08-19T06:23:29;22.30;99.90
3944;DHT22;1986;52.546;13.428;2022-08-19T06:25:57;22.40;99.90
3944;DHT22;1986;52.546;13.428;2022-08-19T06:28:24;22.30;99.90
3944;DHT22;1986;52.546;13.428;2022-08-19T06:30:51;22.20;99.90
3944;DHT22;1986;52.546;13.428;2022-08-19T06:33:18;22.30;99.90
3944;DHT22;1986;52.546;13.428;2022-08-19T06:35:45;22.50;99.90
3944;DHT22;1986;52.546;13.428;2022-08-19T06:38:15;22.50;99.90
3944;DHT22;1986;52.546;13.428;2022-08-19T06:40:42;22.50;99.90
3944;DHT22;1986;52.546;13.428;2022-08-19T06:43:19;22.60;99.90
3944;DHT22;1986;52.546;13.428;2022-08-19T06:45:48;22.60;99.90
3944;DHT22;1986;52.546;13.428;2022-08-19T06:48:17;22.60;99.90
3944;DHT22;1986;52.546;13.428;2022-08-19T06:50:50;22.80;99.90
3944;DHT22;1986;52.546;13.428;2022-08-19T06:53:25;23.10;99.90
3944;DHT22;1986;52.546;13.428;2022-08-19T06:55:54;23.00;99.90
3944;DHT22;1986;52.546;13.428;2022-08-19T06:58:35;23.10;99.90
3944;DHT22;1986;52.546;13.428;2022-08-19T07:01:04;22.90;99.90
3944;DHT22;1986;52.546;13.428;2022-08-19T07:03:34;23.10;99.90
3944;DHT22;1986;52.546;13.428;2022-08-19T07:06:04;23.10;99.90
3944;DHT22;1986;52.546;13.428;2022-08-19T07:08:33;23.20;99.90
3944;DHT22;1986;52.546;13.428;2022-08-19T07:11:08;23.20;99.90
3944;DHT22;1986;52.546;13.428;2022-08-19T07:13:51;22.90;99.90
3944;DHT22;1986;52.546;13.428;2022-08-19T07:16:19;23.00;99.90
3944;DHT22;1986;52.546;13.428;2022-08-19T07:18:49;23.10;99.90
3944;DHT22;1986;52.546;13.428;2022-08-19T07:21:21;23.10;99.90
3944;DHT22;1986;52.546;13.428;2022-08-19T07:23:50;23.10;99.90
3944;DHT22;1986;52.546;13.428;2022-08-19T07:26:21;23.10;99.90
3944;DHT22;1986;52.546;13.428;2022-08-19T07:28:50;23.20;99.90
3944;DHT22;1986;52.546;13.428;2022-08-19T07:31:20;23.40;99.90
3944;DHT22;1986;52.546;13.428;2022-08-19T07:33:51;23.40;99.90
3944;DHT22;1986;52.546;13.428;2022-08-19T07:36:25;23.50;99.90
3944;DHT22;1986;52.546;13.428;2022-08-19T07:38:59;23.60;99.90
3944;DHT22;1986;52.546;13.428;2022-08-19T07:41:28;23.50;99.90
3944;DHT22;1986;52.546;13.428;2022-08-19T07:43:58;23.60;99.90
3944;DHT22;1986;52.546;13.428;2022-08-19T07:46:29;23.50;99.90
3944;DHT22;1986;52.546;13.428;2022-08-19T07:48:56;23.50;99.90
3944;DHT22;1986;52.546;13.428;2022-08-19T07:51:28;23.50;99.90
3944;DHT22;1986;52.546;13.428;2022-08-19T07:53:55;23.50;99.90
3944;DHT22;1986;52.546;13.428;2022-08-19T07:56:22;23.40;99.90
3944;DHT22;1986;52.546;13.428;2022-08-19T07:58:50;23.50;99.90
3944;DHT22;1986;52.546;13.428;2022-08-19T08:01:22;23.40;99.90
3944;DHT22;1986;52.546;13.428;2022-08-19T08:03:50;23.50;99.90
3944;DHT22;1986;52.546;13.428;2022-08-19T08:06:35;23.60;99.90
3944;DHT22;1986;52.546;13.428;2022-08-19T08:09:23;23.70;99.90
3944;DHT22;1986;52.546;13.428;2022-08-19T08:11:53;23.60;99.90
3944;DHT22;1986;52.546;13.428;2022-08-19T08:14:24;23.70;99.90
3944;DHT22;1986;52.546;13.428;2022-08-19T08:16:54;23.70;99.90
3944;DHT22;1986;52.546;13.428;2022-08-19T08:19:26;23.80;99.90
3944;DHT22;1986;52.546;13.428;2022-08-19T08:21:54;23.90;99.90
3944;DHT22;1986;52.546;13.428;2022-08-19T08:24:22;23.80;99.90
3944;DHT22;1986;52.546;13.428;2022-08-19T08:26:49;23.70;99.90
3944;DHT22;1986;52.546;13.428;2022-08-19T08:29:16;23.70;99.90
3944;DHT22;1986;52.546;13.428;2022-08-19T08:31:46;23.80;99.90
3944;DHT22;1986;52.546;13.428;2022-08-19T08:34:17;23.80;99.90
3944;DHT22;1986;52.546;13.428;2022-08-19T08:36:46;23.80;99.90
3944;DHT22;1986;52.546;13.428;2022-08-19T08:39:15;23.70;99.90
3944;DHT22;1986;52.546;13.428;2022-08-19T08:41:51;23.80;99.90
3944;DHT22;1986;52.546;13.428;2022-08-19T08:44:22;23.60;99.90
3944;DHT22;1986;52.546;13.428;2022-08-19T08:46:53;23.50;99.90
3944;DHT22;1986;52.546;13.428;2022-08-19T08:49:31;23.50;99.90
3944;DHT22;1986;52.546;13.428;2022-08-19T08:52:04;23.50;99.90
3944;DHT22;1986;52.546;13.428;2022-08-19T08:54:43;23.60;99.90
3944;DHT22;1986;52.546;13.428;2022-08-19T08:57:14;23.70;99.90
3944;DHT22;1986;52.546;13.428;2022-08-19T08:59:43;23.70;99.90
3944;DHT22;1986;52.546;13.428;2022-08-19T09:02:12;23.60;99.90
3944;DHT22;1986;52.546;13.428;2022-08-19T09:04:40;23.60;99.90
3944;DHT22;1986;52.546;13.428;2022-08-19T09:07:22;23.80;99.90
3944;DHT22;1986;52.546;13.428;2022-08-19T09:09:52;23.80;99.90
3944;DHT22;1986;52.546;13.428;2022-08-19T09:12:26;23.70;99.90
3944;DHT22;1986;52.546;13.428;2022-08-19T09:15:04;23.70;99.90
3944;DHT22;1986;52.546;13.428;2022-08-19T09:17:33;23.50;99.90
3944;DHT22;1986;52.546;13.428;2022-08-19T09:20:06;23.50;99.90
3944;DHT22;1986;52.546;13.428;2022-08-19T09:22:39;23.50;99.90
3944;DHT22;1986;52.546;13.428;2022-08-19T09:25:11;23.60;99.90
3944;DHT22;1986;52.546;13.428;2022-08-19T09:27:40;23.80;99.90
3944;DHT22;1986;52.546;13.428;2022-08-19T09:30:13;23.80;99.90
3944;DHT22;1986;52.546;13.428;2022-08-19T09:32:43;23.90;99.90
3944;DHT22;1986;52.546;13.428;2022-08-19T09:35:14;24.00;99.90
3944;DHT22;1986;52.546;13.428;2022-08-19T09:37:42;24.10;99.90
3944;DHT22;1986;52.546;13.428;2022-08-19T09:40:11;24.20;99.90
3944;DHT22;1986;52.546;13.428;2022-08-19T09:42:38;24.50;99.90
3944;DHT22;1986;52.546;13.428;2022-08-19T09:45:08;24.40;99.90
3944;DHT22;1986;52.546;13.428;2022-08-19T09:47:35;24.40;99.90
3944;DHT22;1986;52.546;13.428;2022-08-19T09:50:05;24.60;99.90
3944;DHT22;1986;52.546;13.428;2022-08-19T09:52:34;24.60;99.90
3944;DHT22;1986;52.546;13.428;2022-08-19T09:55:03;24.60;99.90
3944;DHT22;1986;52.546;13.428;2022-08-19T09:57:32;24.60;99.90
3944;DHT22;1986;52.546;13.428;2022-08-19T09:59:59;24.50;99.90
3944;DHT22;1986;52.546;13.428;2022-08-19T10:02:29;24.60;99.90
3944;DHT22;1986;52.546;13.428;2022-08-19T10:04:58;24.50;99.90
3944;DHT22;1986;52.546;13.428;2022-08-19T10:07:45;24.40;99.90
3944;DHT22;1986;52.546;13.428;2022-08-19T10:10:14;24.40;99.90
3944;DHT22;1986;52.546;13.428;2022-08-19T10:12:42;24.40;99.90
3944;DHT22;1986;52.546;13.428;2022-08-19T10:15:13;24.50;99.90
3944;DHT22;1986;52.546;13.428;2022-08-19T10:17:40;24.70;99.90
3944;DHT22;1986;52.546;13.428;2022-08-19T10:20:08;24.70;99.90
3944;DHT22;1986;52.546;13.428;2022-08-19T10:22:35;24.50;99.90
3944;DHT22;1986;52.546;13.428;2022-08-19T10:25:07;24.50;99.90
3944;DHT22;1986;52.546;13.428;2022-08-19T10:27:34;24.40;99.90
3944;DHT22;1986;52.546;13.428;2022-08-19T10:30:01;24.20;99.90
3944;DHT22;1986;52.546;13.428;2022-08-19T10:32:29;24.30;99.90
3944;DHT22;1986;52.546;13.428;2022-08-19T10:34:57;24.30;99.90
3944;DHT22;1986;52.546;13.428;2022-08-19T10:37:24;24.30;99.90
3944;DHT22;1986;52.546;13.428;2022-08-19T10:39:51;24.20;99.90
3944;DHT22;1986;52.546;13.428;2022-08-19T10:42:22;24.00;99.90
3944;DHT22;1986;52.546;13.428;2022-08-19T10:44:49;24.00;99.90
3944;DHT22;1986;52.546;13.428;2022-08-19T10:47:16;23.90;99.90
3944;DHT22;1986;52.546;13.428;2022-08-19T10:49:45;23.90;99.90
3944;DHT22;1986;52.546;13.428;2022-08-19T10:52:37;24.20;99.90
3944;DHT22;1986;52.546;13.428;2022-08-19T10:55:06;24.40;99.90
3944;DHT22;1986;52.546;13.428;2022-08-19T10:57:56;24.40;99.90
3944;DHT22;1986;52.546;13.428;2022-08-19T11:00:27;24.40;99.90
3944;DHT22;1986;52.546;13.428;2022-08-19T11:02:54;24.30;99.90
3944;DHT22;1986;52.546;13.428;2022-08-19T11:05:21;24.20;99.90
3944;DHT22;1986;52.546;13.428;2022-08-19T11:07:53;24.20;99.90
3944;DHT22;1986;52.546;13.428;2022-08-19T11:10:20;24.10;99.90
3944;DHT22;1986;52.546;13.428;2022-08-19T11:12:53;24.00;99.90
3944;DHT22;1986;52.546;13.428;2022-08-19T11:15:21;24.00;99.90
3944;DHT22;1986;52.546;13.428;2022-08-19T11:17:51;24.00;99.90
3944;DHT22;1986;52.546;13.428;2022-08-19T11:20:19;24.00;99.90
3944;DHT22;1986;52.546;13.428;2022-08-19T11:22:51;24.00;99.90
3944;DHT22;1986;52.546;13.428;2022-08-19T11:25:20;24.10;99.90
3944;DHT22;1986;52.546;13.428;2022-08-19T11:28:12;24.10;99.90
3944;DHT22;1986;52.546;13.428;2022-08-19T11:30:51;24.00;99.90
3944;DHT22;1986;52.546;13.428;2022-08-19T11:33:25;24.00;99.90
3944;DHT22;1986;52.546;13.428;2022-08-19T11:35:57;23.90;99.90
3944;DHT22;1986;52.546;13.428;2022-08-19T11:38:24;23.90;99.90
3944;DHT22;1986;52.546;13.428;2022-08-19T11:40:58;23.80;99.90
3944;DHT22;1986;52.546;13.428;2022-08-19T11:43:29;23.80;99.90
3944;DHT22;1986;52.546;13.428;2022-08-19T11:45:59;23.70;99.90
3944;DHT22;1986;52.546;13.428;2022-08-19T11:48:30;23.70;99.90
3944;DHT22;1986;52.546;13.428;2022-08-19T11:50:59;23.80;99.90
3944;DHT22;1986;52.546;13.428;2022-08-19T11:53:32;23.80;99.90
3944;DHT22;1986;52.546;13.428;2022-08-19T11:56:02;23.60;99.90
3944;DHT22;1986;52.546;13.428;2022-08-19T11:58:30;23.50;99.90
3944;DHT22;1986;52.546;13.428;2022-08-19T12:01:09;23.50;99.90
3944;DHT22;1986;52.546;13.428;2022-08-19T12:03:38;23.50;99.90
3944;DHT22;1986;52.546;13.428;2022-08-19T12:06:14;23.70;99.90
3944;DHT22;1986;52.546;13.428;2022-08-19T12:08:46;23.80;99.90
3944;DHT22;1986;52.546;13.428;2022-08-19T12:11:14;24.00;99.90
3944;DHT22;1986;52.546;13.428;2022-08-19T12:13:50;24.20;99.90
3944;DHT22;1986;52.546;13.428;2022-08-19T12:16:23;24.10;99.90
3944;DHT22;1986;52.546;13.428;2022-08-19T12:18:51;24.20;99.90
3944;DHT22;1986;52.546;13.428;2022-08-19T12:21:23;24.20;99.90
3944;DHT22;1986;52.546;13.428;2022-08-19T12:23:50;24.10;99.90
3944;DHT22;1986;52.546;13.428;2022-08-19T12:26:24;24.20;99.90
3944;DHT22;1986;52.546;13.428;2022-08-19T12:28:58;24.20;99.90
3944;DHT22;1986;52.546;13.428;2022-08-19T12:31:26;24.30;99.90
3944;DHT22;1986;52.546;13.428;2022-08-19T12:33:56;24.40;99.90
3944;DHT22;1986;52.546;13.428;2022-08-19T12:36:24;24.50;99.90
3944;DHT22;1986;52.546;13.428;2022-08-19T12:38:53;24.60;99.90
3944;DHT22;1986;52.546;13.428;2022-08-19T12:41:23;24.70;99.90
3944;DHT22;1986;52.546;13.428;2022-08-19T12:43:49;24.80;99.90
3944;DHT22;1986;52.546;13.428;2022-08-19T12:46:20;24.90;99.90
3944;DHT22;1986;52.546;13.428;2022-08-19T12:48:48;25.00;99.90
3944;DHT22;1986;52.546;13.428;2022-08-19T12:51:19;25.00;99.90
3944;DHT22;1986;52.546;13.428;2022-08-19T12:53:46;25.10;99.90
3944;DHT22;1986;52.546;13.428;2022-08-19T12:56:15;25.00;99.90
3944;DHT22;1986;52.546;13.428;2022-08-19T12:58:43;25.00;99.90
3944;DHT22;1986;52.546;13.428;2022-08-19T13:01:15;24.90;99.90
3944;DHT22;1986;52.546;13.428;2022-08-19T13:03:47;25.20;99.90
3944;DHT22;1986;52.546;13.428;2022-08-19T13:06:14;25.40;99.90
3944;DHT22;1986;52.546;13.428;2022-08-19T13:08:41;25.60;99.90
3944;DHT22;1986;52.546;13.428;2022-08-19T13:11:12;25.70;99.90
3944;DHT22;1986;52.546;13.428;2022-08-19T13:13:43;25.40;99.90
3944;DHT22;1986;52.546;13.428;2022-08-19T13:16:13;25.30;99.90
3944;DHT22;1986;52.546;13.428;2022-08-19T13:18:42;25.60;99.90
3944;DHT22;1986;52.546;13.428;2022-08-19T13:21:14;25.40;99.90
3944;DHT22;1986;52.546;13.428;2022-08-19T13:23:45;25.40;99.90
3944;DHT22;1986;52.546;13.428;2022-08-19T13:26:15;25.30;99.90
3944;DHT22;1986;52.546;13.428;2022-08-19T13:28:48;25.20;99.90
3944;DHT22;1986;52.546;13.428;2022-08-19T13:31:40;25.30;99.90
3944;DHT22;1986;52.546;13.428;2022-08-19T13:34:32;25.30;99.90
3944;DHT22;1986;52.546;13.428;2022-08-19T13:37:04;25.60;99.90
3944;DHT22;1986;52.546;13.428;2022-08-19T13:39:31;25.80;99.90
3944;DHT22;1986;52.546;13.428;2022-08-19T13:41:59;25.60;99.90
3944;DHT22;1986;52.546;13.428;2022-08-19T13:44:31;25.30;99.90
3944;DHT22;1986;52.546;13.428;2022-08-19T13:47:01;25.20;99.90
3944;DHT22;1986;52.546;13.428;2022-08-19T13:49:32;25.20;99.90
3944;DHT22;1986;52.546;13.428;2022-08-19T13:52:01;25.20;99.90
3944;DHT22;1986;52.546;13.428;2022-08-19T13:54:28;24.90;99.90
3944;DHT22;1986;52.546;13.428;2022-08-19T13:56:55;24.70;99.90
3944;DHT22;1986;52.546;13.428;2022-08-19T13:59:24;24.70;99.90
3944;DHT22;1986;52.546;13.428;2022-08-19T14:01:51;24.80;99.90
3944;DHT22;1986;52.546;13.428;2022-08-19T14:04:19;24.70;99.90
3944;DHT22;1986;52.546;13.428;2022-08-19T14:06:47;24.70;99.90
3944;DHT22;1986;52.546;13.428;2022-08-19T14:09:18;24.70;99.90
3944;DHT22;1986;52.546;13.428;2022-08-19T14:11:44;24.60;99.90
3944;DHT22;1986;52.546;13.428;2022-08-19T14:14:12;24.60;99.90
3944;DHT22;1986;52.546;13.428;2022-08-19T14:16:39;24.70;99.90
3944;DHT22;1986;52.546;13.428;2022-08-19T14:19:06;24.70;99.90
3944;DHT22;1986;52.546;13.428;2022-08-19T14:21:34;24.80;99.90
3944;DHT22;1986;52.546;13.428;2022-08-19T14:24:02;24.70;99.90
3944;DHT22;1986;52.546;13.428;2022-08-19T14:26:30;24.70;99.90
3944;DHT22;1986;52.546;13.428;2022-08-19T14:28:57;24.70;99.90
3944;DHT22;1986;52.546;13.428;2022-08-19T14:31:25;24.90;99.90
3944;DHT22;1986;52.546;13.428;2022-08-19T14:33:52;24.80;99.90
3944;DHT22;1986;52.546;13.428;2022-08-19T14:36:20;24.90;99.90
3944;DHT22;1986;52.546;13.428;2022-08-19T14:38:48;25.10;99.90
3944;DHT22;1986;52.546;13.428;2022-08-19T14:41:20;25.20;99.90
3944;DHT22;1986;52.546;13.428;2022-08-19T14:43:50;25.10;99.90
3944;DHT22;1986;52.546;13.428;2022-08-19T14:46:20;25.00;99.90
3944;DHT22;1986;52.546;13.428;2022-08-19T14:48:47;24.80;99.90
3944;DHT22;1986;52.546;13.428;2022-08-19T14:51:18;24.70;99.90
3944;DHT22;1986;52.546;13.428;2022-08-19T14:53:45;24.60;99.90
3944;DHT22;1986;52.546;13.428;2022-08-19T14:56:19;24.50;99.90
3944;DHT22;1986;52.546;13.428;2022-08-19T14:58:49;24.60;99.90
3944;DHT22;1986;52.546;13.428;2022-08-19T15:01:17;24.60;99.90
3944;DHT22;1986;52.546;13.428;2022-08-19T15:03:45;24.50;99.90
3944;DHT22;1986;52.546;13.428;2022-08-19T15:06:13;24.40;99.90
3944;DHT22;1986;52.546;13.428;2022-08-19T15:08:41;24.40;99.90
3944;DHT22;1986;52.546;13.428;2022-08-19T15:11:12;24.60;99.90
3944;DHT22;1986;52.546;13.428;2022-08-19T15:13:40;24.70;99.90
3944;DHT22;1986;52.546;13.428;2022-08-19T15:16:09;24.50;99.90
3944;DHT22;1986;52.546;13.428;2022-08-19T15:18:36;24.40;99.90
3944;DHT22;1986;52.546;13.428;2022-08-19T15:21:06;24.20;99.90
3944;DHT22;1986;52.546;13.428;2022-08-19T15:23:38;24.10;99.90
3944;DHT22;1986;52.546;13.428;2022-08-19T15:26:05;24.00;99.90
3944;DHT22;1986;52.546;13.428;2022-08-19T15:28:33;24.00;99.90
3944;DHT22;1986;52.546;13.428;2022-08-19T15:31:00;24.00;99.90
3944;DHT22;1986;52.546;13.428;2022-08-19T15:33:36;24.00;99.90
3944;DHT22;1986;52.546;13.428;2022-08-19T15:36:04;23.90;99.90
3944;DHT22;1986;52.546;13.428;2022-08-19T15:38:33;24.00;99.90
3944;DHT22;1986;52.546;13.428;2022-08-19T15:41:01;23.90;99.90
3944;DHT22;1986;52.546;13.428;2022-08-19T15:43:42;23.90;99.90
3944;DHT22;1986;52.546;13.428;2022-08-19T15:46:10;23.90;99.90
3944;DHT22;1986;52.546;13.428;2022-08-19T15:48:38;23.90;99.90
3944;DHT22;1986;52.546;13.428;2022-08-19T15:51:07;23.90;99.90
3944;DHT22;1986;52.546;13.428;2022-08-19T15:53:35;23.80;99.90
3944;DHT22;1986;52.546;13.428;2022-08-19T15:56:02;23.70;99.90
3944;DHT22;1986;52.546;13.428;2022-08-19T15:58:32;23.60;99.90
3944;DHT22;1986;52.546;13.428;2022-08-19T16:01:16;23.50;99.90
3944;DHT22;1986;52.546;13.428;2022-08-19T16:04:02;23.50;99.90